Time;durP1;ratioP1;P1;durP2;ratioP2;P2;SDS_P1;SDS_P2;PMS_P1;PMS_P2;Temp;Humidity;BMP_temperature;BMP_pressure;BME280_temperature;BME280_humidity;BME280_pressure;Samples;Min_cycle;Max_cycle;Signal;HPM_P1;HPM_P2
2024/01/01 00:01:28;;;;;;;46.13;29.03;;;4.10;99.90;;;;;;5002225;28;20052;-77
2024/01/01 00:03:54;;;;;;;30.97;18.40;;;4.10;99.90;;;;;;5008132;28;20097;-78
2024/01/01 00:06:19;;;;;;;26.10;16.50;;;4.20;99.90;;;;;;5008867;28;20018;-79
2024/01/01 00:08:45;;;;;;;22.20;14.43;;;4.20;99.90;;;;;;5010905;28;20121;-79
2024/01/01 00:11:10;;;;;;;31.20;15.50;;;4.20;99.90;;;;;;5009345;28;20022;-80
2024/01/01 00:13:36;;;;;;;33.80;16.10;;;4.20;99.90;;;;;;5008843;28;20026;-79
2024/01/01 00:16:02;;;;;;;28.37;14.93;;;4.20;99.90;;;;;;5009185;28;20026;-79
2024/01/01 00:18:27;;;;;;;24.17;13.57;;;4.20;99.90;;;;;;5002203;28;20037;-79
2024/01/01 00:20:53;;;;;;;20.47;12.80;;;4.30;99.90;;;;;;4996651;28;20112;-77
2024/01/01 00:23:19;;;;;;;20.07;11.27;;;4.30;99.90;;;;;;4995794;28;20030;-79
2024/01/01 00:25:44;;;;;;;20.30;11.17;;;4.30;99.90;;;;;;4993828;28;20816;-77
2024/01/01 00:28:10;;;;;;;16.70;10.33;;;4.30;99.90;;;;;;4999290;28;20021;-79
2024/01/01 00:30:36;;;;;;;15.77;9.03;;;4.30;99.90;;;;;;5003062;28;20113;-80
2024/01/01 00:33:02;;;;;;;17.97;9.73;;;4.30;99.90;;;;;;5002831;28;20475;-80
2024/01/01 00:35:27;;;;;;;15.63;10.83;;;4.20;99.90;;;;;;5006493;28;20034;-81
2024/01/01 00:37:54;;;;;;;14.30;8.73;;;4.20;99.90;;;;;;5002093;28;20061;-80
2024/01/01 00:40:20;;;;;;;14.93;8.90;;;4.20;99.90;;;;;;5003571;28;20031;-80
2024/01/01 00:42:47;;;;;;;11.60;7.97;;;4.20;99.90;;;;;;5003979;28;20038;-80
2024/01/01 00:45:13;;;;;;;14.20;7.67;;;4.20;99.90;;;;;;5003675;28;20042;-80
2024/01/01 00:47:38;;;;;;;11.30;7.03;;;4.20;99.90;;;;;;5005088;28;20040;-79
2024/01/01 00:50:05;;;;;;;10.60;6.97;;;4.20;99.90;;;;;;5006210;28;20034;-79
2024/01/01 00:52:30;;;;;;;11.00;6.37;;;4.20;99.90;;;;;;5006744;28;20034;-80
2024/01/01 00:54:56;;;;;;;7.43;5.20;;;4.20;99.90;;;;;;5009744;28;20089;-79
2024/01/01 00:57:21;;;;;;;8.20;5.23;;;4.20;99.90;;;;;;5006575;28;20042;-80
2024/01/01 00:59:47;;;;;;;10.23;5.63;;;4.20;99.90;;;;;;5004992;28;20030;-80
2024/01/01 01:02:12;;;;;;;10.43;5.80;;;4.20;99.90;;;;;;5004523;28;20040;-80
2024/01/01 01:04:38;;;;;;;8.17;5.47;;;4.20;99.90;;;;;;5003525;28;20034;-81
2024/01/01 01:07:05;;;;;;;10.13;5.20;;;4.30;99.90;;;;;;5004024;28;20033;-80
2024/01/01 01:09:30;;;;;;;9.67;5.97;;;4.30;99.90;;;;;;5005270;28;20056;-80
2024/01/01 01:11:56;;;;;;;8.20;5.00;;;4.30;99.90;;;;;;4985859;28;20157;-81
2024/01/01 01:14:21;;;;;;;7.53;4.87;;;4.30;99.90;;;;;;5002029;28;20041;-81
2024/01/01 01:16:47;;;;;;;8.03;5.63;;;4.30;99.90;;;;;;4984910;28;20034;-80
2024/01/01 01:19:12;;;;;;;9.23;5.33;;;4.30;99.90;;;;;;5002199;28;20046;-79
2024/01/01 01:21:38;;;;;;;10.93;5.47;;;4.30;99.90;;;;;;5004283;28;20445;-80
2024/01/01 01:24:04;;;;;;;11.03;6.53;;;4.30;99.90;;;;;;5002154;28;20069;-80
2024/01/01 01:26:29;;;;;;;8.77;5.43;;;4.30;99.90;;;;;;5001348;28;20022;-80
2024/01/01 01:28:56;;;;;;;9.93;5.23;;;4.30;99.90;;;;;;5002976;28;20046;-79
2024/01/01 01:31:22;;;;;;;9.63;5.77;;;4.30;99.90;;;;;;5001605;28;20090;-79
2024/01/01 01:33:48;;;;;;;8.57;5.77;;;4.30;99.90;;;;;;5004772;28;20026;-79
2024/01/01 01:36:14;;;;;;;16.60;7.47;;;4.30;99.90;;;;;;5004770;28;20033;-79
2024/01/01 01:38:39;;;;;;;8.23;5.03;;;4.30;99.90;;;;;;5003789;28;20065;-80
2024/01/01 01:41:05;;;;;;;9.13;5.83;;;4.30;99.90;;;;;;4986352;28;20045;-79
2024/01/01 01:43:31;;;;;;;8.97;5.40;;;4.30;99.90;;;;;;5003324;28;20045;-79
2024/01/01 01:45:58;;;;;;;9.30;5.33;;;4.30;99.90;;;;;;5005381;28;21073;-79
2024/01/01 01:48:25;;;;;;;9.83;5.67;;;4.20;99.90;;;;;;5002961;28;20034;-79
2024/01/01 01:50:51;;;;;;;7.87;5.50;;;4.20;99.90;;;;;;5005008;28;20040;-79
2024/01/01 01:53:24;;;;;;;7.93;5.50;;;4.20;99.90;;;;;;5004964;28;20762;-80
2024/01/01 01:55:52;;;;;;;8.77;4.73;;;4.20;99.90;;;;;;5005914;28;20076;-79
2024/01/01 01:58:17;;;;;;;8.20;5.57;;;4.20;99.90;;;;;;4987838;28;20030;-80
2024/01/01 02:00:46;;;;;;;9.80;5.03;;;4.20;99.90;;;;;;5004558;28;20045;-80
2024/01/01 02:03:12;;;;;;;9.47;5.57;;;4.10;99.90;;;;;;5005300;28;20399;-80
2024/01/01 02:05:38;;;;;;;8.60;5.10;;;4.20;99.90;;;;;;4986869;28;20031;-79
2024/01/01 02:08:05;;;;;;;9.43;5.00;;;4.20;99.90;;;;;;5004885;28;20117;-79
2024/01/01 02:10:31;;;;;;;8.40;5.30;;;4.20;99.90;;;;;;5004859;28;20022;-79
2024/01/01 02:12:56;;;;;;;8.10;4.60;;;4.10;99.90;;;;;;5005711;28;20045;-79
2024/01/01 02:15:22;;;;;;;8.53;5.17;;;4.10;99.90;;;;;;5005052;28;21046;-79
2024/01/01 02:17:48;;;;;;;7.90;4.60;;;4.10;99.90;;;;;;5004479;28;20306;-80
2024/01/01 02:20:14;;;;;;;8.07;4.77;;;4.10;99.90;;;;;;5006419;28;20044;-79
2024/01/01 02:22:40;;;;;;;8.07;4.87;;;4.10;99.90;;;;;;5006349;28;20049;-80
2024/01/01 02:25:08;;;;;;;6.80;5.00;;;4.10;99.90;;;;;;5005650;28;20111;-79
2024/01/01 02:27:36;;;;;;;6.77;4.10;;;4.10;99.90;;;;;;4989604;28;20090;-79
2024/01/01 02:30:02;;;;;;;7.23;4.30;;;4.00;99.90;;;;;;5006305;28;20096;-79
2024/01/01 02:32:28;;;;;;;7.83;4.17;;;4.00;99.90;;;;;;5007775;28;20034;-80
2024/01/01 02:34:53;;;;;;;8.40;4.73;;;4.00;99.90;;;;;;5007262;28;20038;-79
2024/01/01 02:37:19;;;;;;;7.47;3.80;;;3.90;99.90;;;;;;5006258;28;20030;-79
2024/01/01 02:39:44;;;;;;;7.20;4.20;;;3.90;99.90;;;;;;5007096;28;20091;-79
2024/01/01 02:42:10;;;;;;;4.63;3.23;;;4.00;99.90;;;;;;5006351;28;20098;-80
2024/01/01 02:44:35;;;;;;;7.70;3.43;;;3.90;99.90;;;;;;5003392;28;20034;-80
2024/01/01 02:47:01;;;;;;;6.13;3.40;;;3.90;99.90;;;;;;5004823;28;20076;-79
2024/01/01 02:49:26;;;;;;;8.13;3.37;;;4.00;99.90;;;;;;5002051;28;21454;-80
2024/01/01 02:51:52;;;;;;;5.90;3.27;;;3.90;99.90;;;;;;5003664;28;20022;-79
2024/01/01 02:54:17;;;;;;;6.77;3.07;;;3.90;99.90;;;;;;5003410;28;20057;-79
2024/01/01 02:56:43;;;;;;;4.43;2.63;;;3.90;99.90;;;;;;5002965;28;20026;-80
2024/01/01 02:59:10;;;;;;;6.23;2.87;;;3.90;99.90;;;;;;5001846;28;20038;-80
2024/01/01 03:01:35;;;;;;;7.30;2.87;;;3.90;99.90;;;;;;5002928;28;20033;-80
2024/01/01 03:04:01;;;;;;;5.67;3.10;;;3.90;99.90;;;;;;5001707;28;20047;-80
2024/01/01 03:06:26;;;;;;;5.53;3.20;;;3.80;99.90;;;;;;4983978;28;20037;-79
2024/01/01 03:08:52;;;;;;;6.27;3.20;;;3.80;99.90;;;;;;5002764;28;20035;-80
2024/01/01 03:11:17;;;;;;;5.70;3.17;;;3.80;99.90;;;;;;5001223;28;20120;-79
2024/01/01 03:13:43;;;;;;;5.80;3.30;;;3.80;99.90;;;;;;5002158;28;20022;-79
2024/01/01 03:16:08;;;;;;;5.93;3.70;;;3.70;99.90;;;;;;5002055;28;20077;-80
2024/01/01 03:18:35;;;;;;;15.83;8.43;;;3.70;99.90;;;;;;5004295;28;20145;-80
2024/01/01 03:21:00;;;;;;;13.90;6.90;;;3.70;99.90;;;;;;5003531;28;20132;-80
2024/01/01 03:23:26;;;;;;;8.03;4.63;;;3.70;99.90;;;;;;5003927;28;20195;-80
2024/01/01 03:25:51;;;;;;;7.63;3.57;;;3.70;99.90;;;;;;5004771;28;20030;-79
2024/01/01 03:28:17;;;;;;;6.73;3.87;;;3.70;99.90;;;;;;5003848;28;20028;-80
2024/01/01 03:30:43;;;;;;;8.90;4.17;;;3.70;99.90;;;;;;5004524;28;20045;-80
2024/01/01 03:33:09;;;;;;;7.70;3.67;;;3.70;99.90;;;;;;5003719;28;20065;-80
2024/01/01 03:35:34;;;;;;;7.10;4.20;;;3.70;99.90;;;;;;4986205;28;20031;-80
2024/01/01 03:38:01;;;;;;;7.47;3.83;;;3.70;99.90;;;;;;5004536;28;20029;-80
2024/01/01 03:40:27;;;;;;;6.57;3.73;;;3.60;99.90;;;;;;5003353;28;20045;-79
2024/01/01 03:42:53;;;;;;;8.33;4.10;;;3.60;99.90;;;;;;5003049;28;20194;-80
2024/01/01 03:45:19;;;;;;;9.40;4.10;;;3.60;99.90;;;;;;5003843;28;20044;-80
2024/01/01 03:47:45;;;;;;;7.33;4.63;;;3.60;99.90;;;;;;5002786;28;20054;-80
2024/01/01 03:50:10;;;;;;;8.20;4.57;;;3.60;99.90;;;;;;5004015;28;20101;-80
2024/01/01 03:52:36;;;;;;;8.33;4.23;;;3.50;99.90;;;;;;5002362;28;20081;-80
2024/01/01 03:55:03;;;;;;;8.57;4.67;;;3.50;99.90;;;;;;5003881;28;20162;-80
2024/01/01 03:57:32;;;;;;;8.53;4.17;;;3.50;99.90;;;;;;5003521;28;20061;-81
2024/01/01 03:59:57;;;;;;;6.30;3.87;;;3.50;99.90;;;;;;5003706;28;20625;-80
2024/01/01 04:02:23;;;;;;;9.03;4.53;;;3.40;99.90;;;;;;5002570;28;20039;-80
2024/01/01 04:04:50;;;;;;;9.17;4.30;;;3.40;99.90;;;;;;5003596;28;20041;-80
2024/01/01 04:07:16;;;;;;;8.90;4.00;;;3.30;99.90;;;;;;5001841;28;20087;-80
2024/01/01 04:09:42;;;;;;;10.37;3.87;;;3.30;99.90;;;;;;5002757;28;20096;-80
2024/01/01 04:12:07;;;;;;;9.17;3.57;;;3.30;99.90;;;;;;5002984;28;20039;-80
2024/01/01 04:14:33;;;;;;;7.73;3.20;;;3.30;99.90;;;;;;5004009;28;20098;-79
2024/01/01 04:16:58;;;;;;;6.80;3.60;;;3.30;99.90;;;;;;5003424;28;20102;-80
2024/01/01 04:19:24;;;;;;;5.70;3.20;;;3.30;99.90;;;;;;5002422;28;20507;-80
2024/01/01 04:21:50;;;;;;;7.53;3.00;;;3.30;99.90;;;;;;5003883;28;20050;-80
2024/01/01 04:24:15;;;;;;;7.67;3.53;;;3.30;99.90;;;;;;5003189;28;20156;-80
2024/01/01 04:26:41;;;;;;;5.80;3.07;;;3.20;99.90;;;;;;5003656;28;20026;-80
2024/01/01 04:29:06;;;;;;;6.63;3.03;;;3.20;99.90;;;;;;4986399;28;20095;-80
2024/01/01 04:31:32;;;;;;;5.93;3.10;;;3.20;99.90;;;;;;5005161;28;20030;-79
2024/01/01 04:33:57;;;;;;;7.13;3.03;;;3.10;99.90;;;;;;5003801;28;20026;-80
2024/01/01 04:36:23;;;;;;;5.77;3.30;;;3.10;99.90;;;;;;5003269;28;20053;-80
2024/01/01 04:38:48;;;;;;;5.23;3.00;;;3.00;99.90;;;;;;5005569;28;20037;-80
2024/01/01 04:41:14;;;;;;;7.07;2.90;;;3.00;99.90;;;;;;5009497;28;20030;-80
2024/01/01 04:43:40;;;;;;;5.43;3.27;;;3.00;99.90;;;;;;5011241;28;20041;-79
2024/01/01 04:46:07;;;;;;;7.03;2.90;;;3.00;99.90;;;;;;5011666;28;20034;-80
2024/01/01 04:48:34;;;;;;;7.80;3.20;;;3.10;99.90;;;;;;5013606;28;20600;-79
2024/01/01 04:50:59;;;;;;;5.83;2.87;;;3.10;99.90;;;;;;4991408;28;20137;-79
2024/01/01 04:53:25;;;;;;;8.97;2.60;;;3.20;99.90;;;;;;5009499;28;20045;-79
2024/01/01 04:55:51;;;;;;;6.60;2.73;;;3.20;99.90;;;;;;4992990;28;20092;-80
2024/01/01 04:58:16;;;;;;;5.80;2.87;;;3.30;99.90;;;;;;5010696;28;20064;-80
2024/01/01 05:00:42;;;;;;;7.80;2.57;;;3.40;99.90;;;;;;5010598;28;20044;-80
2024/01/01 05:03:07;;;;;;;5.07;2.67;;;3.50;99.90;;;;;;4993756;28;20023;-80
2024/01/01 05:05:33;;;;;;;4.27;2.13;;;3.50;99.90;;;;;;5006269;28;20034;-79
2024/01/01 05:07:58;;;;;;;5.77;2.17;;;3.70;99.90;;;;;;5005444;28;20056;-79
2024/01/01 05:10:24;;;;;;;6.67;2.50;;;3.70;99.90;;;;;;5008049;28;20068;-79
2024/01/01 05:12:50;;;;;;;4.67;2.40;;;3.80;99.90;;;;;;5006726;28;20093;-80
2024/01/01 05:15:15;;;;;;;8.30;3.50;;;3.80;99.90;;;;;;5005947;28;20034;-80
2024/01/01 05:17:41;;;;;;;5.70;2.47;;;3.80;99.90;;;;;;5006524;28;20035;-80
2024/01/01 05:20:07;;;;;;;6.07;2.53;;;3.80;99.90;;;;;;5006392;28;20033;-80
2024/01/01 05:22:32;;;;;;;8.47;3.33;;;3.80;99.90;;;;;;5007122;28;20053;-80
2024/01/01 05:24:58;;;;;;;4.00;2.40;;;3.80;99.90;;;;;;5005614;28;20671;-80
2024/01/01 05:27:23;;;;;;;8.00;2.07;;;3.80;99.90;;;;;;5006270;28;20025;-80
2024/01/01 05:29:50;;;;;;;3.77;2.40;;;4.00;99.90;;;;;;5006139;28;20059;-80
2024/01/01 05:32:15;;;;;;;4.47;2.40;;;4.10;99.90;;;;;;5005280;28;20033;-80
2024/01/01 05:34:41;;;;;;;4.70;2.20;;;4.20;99.90;;;;;;5005087;28;20041;-80
2024/01/01 05:37:07;;;;;;;7.67;2.47;;;4.30;99.90;;;;;;4988593;28;20034;-79
2024/01/01 05:39:33;;;;;;;9.77;2.77;;;4.30;99.90;;;;;;5005738;28;20058;-79
2024/01/01 05:41:59;;;;;;;5.77;2.40;;;4.40;99.90;;;;;;5005283;28;20137;-79
2024/01/01 05:44:24;;;;;;;7.50;2.40;;;4.50;99.90;;;;;;5005408;28;20098;-80
2024/01/01 05:46:50;;;;;;;6.13;2.50;;;4.60;99.90;;;;;;5004952;28;20026;-80
2024/01/01 05:49:15;;;;;;;4.23;2.40;;;4.60;99.90;;;;;;5004319;28;20069;-80
2024/01/01 05:51:41;;;;;;;7.60;2.97;;;4.50;99.90;;;;;;4988180;28;20026;-79
2024/01/01 05:54:07;;;;;;;7.10;2.23;;;4.50;99.90;;;;;;5007505;28;20052;-80
2024/01/01 05:56:32;;;;;;;4.43;2.23;;;4.50;99.90;;;;;;5003886;28;21127;-80
2024/01/01 05:58:58;;;;;;;5.20;2.40;;;4.50;99.90;;;;;;5007082;28;20061;-80
2024/01/01 06:01:23;;;;;;;4.57;2.30;;;4.50;99.90;;;;;;5006892;28;20033;-80
2024/01/01 06:03:49;;;;;;;8.23;3.20;;;4.50;99.90;;;;;;4987134;28;20041;-79
2024/01/01 06:06:15;;;;;;;6.00;2.57;;;4.50;99.90;;;;;;4990101;28;20037;-79
2024/01/01 06:08:40;;;;;;;7.83;2.43;;;4.50;99.90;;;;;;5004882;28;20018;-79
2024/01/01 06:11:06;;;;;;;4.17;2.07;;;4.50;99.90;;;;;;5006065;28;20077;-79
2024/01/01 06:13:31;;;;;;;4.47;2.33;;;4.50;99.90;;;;;;4988253;28;20064;-79
2024/01/01 06:15:58;;;;;;;3.00;2.10;;;4.50;99.90;;;;;;5004030;28;20030;-79
2024/01/01 06:18:25;;;;;;;3.47;2.07;;;4.60;99.90;;;;;;5005428;28;20085;-79
2024/01/01 06:20:51;;;;;;;5.73;2.60;;;4.60;99.90;;;;;;5005679;28;21049;-79
2024/01/01 06:23:17;;;;;;;5.50;2.37;;;4.50;99.90;;;;;;5005160;28;20057;-81
2024/01/01 06:25:42;;;;;;;3.93;2.30;;;4.50;99.90;;;;;;4988449;28;20018;-80
2024/01/01 06:28:08;;;;;;;5.07;2.23;;;4.60;99.90;;;;;;5004269;28;20089;-80
2024/01/01 06:30:34;;;;;;;6.40;2.20;;;4.50;99.90;;;;;;5003518;28;20026;-81
2024/01/01 06:33:03;;;;;;;4.03;2.43;;;4.50;99.90;;;;;;5001884;28;20046;-80
2024/01/01 06:35:30;;;;;;;4.97;2.43;;;4.50;99.90;;;;;;4986584;28;20101;-81
2024/01/01 06:37:59;;;;;;;7.23;2.60;;;4.50;99.90;;;;;;5002443;28;20034;-80
2024/01/01 06:40:25;;;;;;;3.90;2.20;;;4.60;99.90;;;;;;5004023;28;20037;-81
2024/01/01 06:42:50;;;;;;;3.47;2.00;;;4.50;99.90;;;;;;5005720;28;20504;-81
2024/01/01 06:45:17;;;;;;;3.87;2.43;;;4.50;99.90;;;;;;5003224;28;20037;-80
2024/01/01 06:47:43;;;;;;;4.90;2.30;;;4.50;99.90;;;;;;5004500;28;20060;-81
2024/01/01 06:50:09;;;;;;;4.57;2.10;;;4.50;99.90;;;;;;5003723;28;20041;-81
2024/01/01 06:52:34;;;;;;;4.87;2.40;;;4.50;99.90;;;;;;5006137;28;20112;-80
2024/01/01 06:55:00;;;;;;;3.67;2.00;;;4.60;99.90;;;;;;5003705;28;20029;-81
2024/01/01 06:57:25;;;;;;;2.97;1.87;;;4.60;99.90;;;;;;5003395;28;20026;-79
2024/01/01 06:59:51;;;;;;;4.20;2.10;;;4.60;99.90;;;;;;4999015;28;20073;-79
2024/01/01 07:02:17;;;;;;;4.03;1.87;;;4.60;99.90;;;;;;4999465;28;20101;-79
2024/01/01 07:04:42;;;;;;;4.27;1.80;;;4.60;99.90;;;;;;5000498;28;20038;-80
2024/01/01 07:07:08;;;;;;;3.47;1.80;;;4.60;99.90;;;;;;4988677;28;20034;-73
2024/01/01 07:09:33;;;;;;;4.83;2.20;;;4.60;99.90;;;;;;4987167;28;20062;-73
2024/01/01 07:12:18;;;;;;;4.33;1.93;;;4.60;99.90;;;;;;4986828;28;20061;-74
2024/01/01 07:14:43;;;;;;;3.97;1.70;;;4.60;99.90;;;;;;4986800;28;20084;-74
2024/01/01 07:17:09;;;;;;;3.43;1.77;;;4.60;99.90;;;;;;4987352;28;20429;-74
2024/01/01 07:19:35;;;;;;;5.40;1.87;;;4.60;99.90;;;;;;4997050;28;20030;-83
2024/01/01 07:22:01;;;;;;;3.40;1.90;;;4.60;99.90;;;;;;5005072;28;20061;-82
2024/01/01 07:24:26;;;;;;;3.93;1.97;;;4.60;99.90;;;;;;5000930;28;20038;-80
2024/01/01 07:26:52;;;;;;;5.47;1.80;;;4.60;99.90;;;;;;5001402;28;20382;-82
2024/01/01 07:29:17;;;;;;;4.77;1.90;;;4.50;99.90;;;;;;4996066;28;20496;-82
2024/01/01 07:31:43;;;;;;;7.93;2.23;;;4.50;99.90;;;;;;4999293;28;20042;-81
2024/01/01 07:34:09;;;;;;;6.33;2.00;;;4.40;99.90;;;;;;4997054;28;20120;-82
2024/01/01 07:36:35;;;;;;;5.60;1.80;;;4.30;99.90;;;;;;4998174;28;20093;-80
2024/01/01 07:39:00;;;;;;;2.50;1.53;;;4.30;99.90;;;;;;4998856;28;20026;-82
2024/01/01 07:41:26;;;;;;;8.10;1.93;;;4.20;99.90;;;;;;4999139;28;20034;-82
2024/01/01 07:43:51;;;;;;;5.27;2.00;;;4.10;99.90;;;;;;4999913;28;20535;-83
2024/01/01 07:46:17;;;;;;;4.00;1.80;;;4.10;99.90;;;;;;4996311;28;20031;-81
2024/01/01 07:48:43;;;;;;;7.60;2.30;;;4.00;99.90;;;;;;4997208;28;20054;-81
2024/01/01 07:51:08;;;;;;;10.63;2.03;;;4.00;99.90;;;;;;4997070;28;20057;-81
2024/01/01 07:53:34;;;;;;;9.10;2.27;;;4.00;99.90;;;;;;4998197;28;20042;-81
2024/01/01 07:56:04;;;;;;;5.20;1.80;;;4.00;99.90;;;;;;4998699;28;20396;-81
2024/01/01 07:58:30;;;;;;;4.10;1.70;;;4.00;99.90;;;;;;4997954;28;20108;-81
2024/01/01 08:00:56;;;;;;;10.70;2.47;;;4.00;99.90;;;;;;4993550;28;20038;-81
2024/01/01 08:03:22;;;;;;;3.10;2.00;;;4.10;99.90;;;;;;4994739;28;20046;-81
2024/01/01 08:05:47;;;;;;;4.23;1.80;;;4.10;99.90;;;;;;4996491;28;20037;-81
2024/01/01 08:08:13;;;;;;;7.90;2.10;;;4.10;99.90;;;;;;4996139;28;20030;-81
2024/01/01 08:10:39;;;;;;;5.87;2.43;;;4.10;99.90;;;;;;4998207;28;20037;-80
2024/01/01 08:13:04;;;;;;;4.23;1.87;;;4.10;99.90;;;;;;4999030;28;20060;-80
2024/01/01 08:15:30;;;;;;;5.30;2.00;;;4.10;99.90;;;;;;5001168;28;20045;-82
2024/01/01 08:17:55;;;;;;;7.50;2.00;;;4.20;99.90;;;;;;5002648;28;20030;-81
2024/01/01 08:20:21;;;;;;;5.80;2.03;;;4.20;99.90;;;;;;5002475;28;20084;-81
2024/01/01 08:22:47;;;;;;;4.47;1.77;;;4.20;99.90;;;;;;5004180;28;20038;-79
2024/01/01 08:25:13;;;;;;;3.87;1.93;;;4.30;99.90;;;;;;5004089;28;20054;-80
2024/01/01 08:27:38;;;;;;;5.27;2.17;;;4.30;99.90;;;;;;5003615;28;20137;-80
2024/01/01 08:30:06;;;;;;;5.03;1.97;;;4.30;99.90;;;;;;5002856;28;20040;-79
2024/01/01 08:32:32;;;;;;;6.70;2.10;;;4.30;99.90;;;;;;5002958;28;20045;-80
2024/01/01 08:34:58;;;;;;;6.03;2.30;;;4.40;99.90;;;;;;5001851;28;20117;-79
2024/01/01 08:37:23;;;;;;;5.53;2.00;;;4.40;99.90;;;;;;5004287;28;20659;-79
2024/01/01 08:39:49;;;;;;;9.70;2.37;;;4.50;99.90;;;;;;5006282;28;20998;-79
2024/01/01 08:42:14;;;;;;;6.03;2.03;;;4.50;99.90;;;;;;5006124;28;20037;-79
2024/01/01 08:44:40;;;;;;;4.53;1.97;;;4.60;99.90;;;;;;4998758;28;20115;-80
2024/01/01 08:47:06;;;;;;;3.70;1.90;;;4.70;99.90;;;;;;4998235;28;20034;-79
2024/01/01 08:49:31;;;;;;;5.33;1.97;;;4.70;99.90;;;;;;5002010;28;20034;-78
2024/01/01 08:51:57;;;;;;;4.20;2.07;;;4.70;99.90;;;;;;5000176;28;20037;-79
2024/01/01 08:54:23;;;;;;;7.50;1.93;;;4.70;99.90;;;;;;5004117;28;20094;-79
2024/01/01 08:56:49;;;;;;;7.53;1.97;;;4.80;99.90;;;;;;5001742;28;20049;-80
2024/01/01 08:59:16;;;;;;;7.13;2.20;;;4.80;99.90;;;;;;5002460;28;20261;-78
2024/01/01 09:01:45;;;;;;;8.73;2.20;;;4.80;99.90;;;;;;5003378;28;20093;-78
2024/01/01 09:04:11;;;;;;;8.03;2.13;;;4.90;99.90;;;;;;5000122;28;20037;-79
2024/01/01 09:06:37;;;;;;;7.57;2.00;;;4.90;99.90;;;;;;4997764;28;20034;-80
2024/01/01 09:09:03;;;;;;;4.23;1.50;;;5.00;99.90;;;;;;4998199;28;20077;-81
2024/01/01 09:11:28;;;;;;;8.03;2.03;;;5.10;99.90;;;;;;4980338;28;20092;-82
2024/01/01 09:13:54;;;;;;;5.73;2.30;;;5.20;99.90;;;;;;4998439;28;20042;-81
2024/01/01 09:16:19;;;;;;;5.97;1.90;;;5.20;99.90;;;;;;5000833;28;20417;-81
2024/01/01 09:18:45;;;;;;;6.53;2.20;;;5.30;99.90;;;;;;4998424;28;20077;-80
2024/01/01 09:21:15;;;;;;;5.53;1.87;;;5.30;99.90;;;;;;4981761;28;20045;-80
2024/01/01 09:23:41;;;;;;;3.43;1.80;;;5.30;99.90;;;;;;5000076;28;20152;-82
2024/01/01 09:26:07;;;;;;;5.37;2.30;;;5.40;99.90;;;;;;4996663;28;20193;-80
2024/01/01 09:28:33;;;;;;;4.50;1.70;;;5.50;99.90;;;;;;4998260;28;20026;-81
2024/01/01 09:30:59;;;;;;;6.37;1.77;;;5.50;99.90;;;;;;5000668;28;20117;-80
2024/01/01 09:33:25;;;;;;;5.10;1.73;;;5.50;99.90;;;;;;5000271;28;21406;-81
2024/01/01 09:35:52;;;;;;;8.03;1.90;;;5.60;99.90;;;;;;4983812;28;20069;-82
2024/01/01 09:38:18;;;;;;;4.07;1.80;;;5.70;99.90;;;;;;5003528;28;20039;-81
2024/01/01 09:40:44;;;;;;;4.47;1.60;;;5.80;99.90;;;;;;5001355;28;20396;-80
2024/01/01 09:43:15;;;;;;;5.20;1.73;;;5.80;99.90;;;;;;5004220;28;20034;-82
2024/01/01 09:45:42;;;;;;;5.97;1.50;;;6.00;99.90;;;;;;5003383;28;20026;-81
2024/01/01 09:48:08;;;;;;;5.80;1.40;;;6.10;99.90;;;;;;4999475;28;20027;-82
2024/01/01 09:50:34;;;;;;;7.23;2.43;;;6.20;99.90;;;;;;5001606;28;20026;-81
2024/01/01 09:52:59;;;;;;;4.30;1.30;;;6.30;99.90;;;;;;5000905;28;20172;-83
2024/01/01 09:55:25;;;;;;;5.63;1.73;;;6.30;99.90;;;;;;5001953;28;20068;-82
2024/01/01 09:57:51;;;;;;;6.73;1.50;;;6.40;99.90;;;;;;5001349;28;20026;-81
2024/01/01 10:00:21;;;;;;;7.27;1.73;;;6.50;99.90;;;;;;4999322;28;20029;-81
2024/01/01 10:02:46;;;;;;;5.83;1.67;;;6.50;99.90;;;;;;4998165;28;20060;-81
2024/01/01 10:05:13;;;;;;;8.90;1.63;;;6.60;99.90;;;;;;4998147;28;20035;-80
2024/01/01 10:07:39;;;;;;;4.27;1.40;;;6.70;99.90;;;;;;4996960;28;20029;-82
2024/01/01 10:10:05;;;;;;;4.50;1.53;;;6.60;99.90;;;;;;4997256;28;20034;-80
2024/01/01 10:12:32;;;;;;;6.63;1.67;;;6.70;99.90;;;;;;4998897;28;20025;-80
2024/01/01 10:14:59;;;;;;;4.77;1.60;;;6.70;99.90;;;;;;4999773;28;20031;-80
2024/01/01 10:17:24;;;;;;;4.57;1.40;;;6.70;99.90;;;;;;4995123;28;20033;-82
2024/01/01 10:19:59;;;;;;;4.77;1.90;;;6.70;99.90;;;;;;4994488;28;20031;-82
2024/01/01 10:22:29;;;;;;;4.88;1.60;;;6.80;99.90;;;;;;4997298;28;20026;-80
2024/01/01 10:25:11;;;;;;;4.90;1.30;;;6.70;99.90;;;;;;4992308;28;20113;-85
2024/01/01 10:27:44;;;;;;;6.13;1.43;;;6.70;99.90;;;;;;4988696;28;20530;-85
2024/01/01 10:30:11;;;;;;;5.67;1.50;;;6.70;99.90;;;;;;4972927;28;20455;-85
2024/01/01 10:32:39;;;;;;;6.00;1.50;;;6.70;99.90;;;;;;4994275;28;20781;-85
2024/01/01 10:35:05;;;;;;;6.27;1.60;;;6.70;99.90;;;;;;4990752;28;20065;-84
2024/01/01 10:37:32;;;;;;;4.03;1.30;;;6.80;99.90;;;;;;4992912;28;20045;-85
2024/01/01 10:40:04;;;;;;;4.77;1.40;;;6.80;99.90;;;;;;4993910;28;20030;-85
2024/01/01 10:42:33;;;;;;;8.80;1.60;;;6.80;99.90;;;;;;4993686;28;20034;-85
2024/01/01 10:45:03;;;;;;;6.43;2.23;;;6.80;99.90;;;;;;4993440;28;20026;-84
2024/01/01 10:47:29;;;;;;;5.37;1.60;;;6.70;99.90;;;;;;4976518;28;20117;-85
2024/01/01 10:50:14;;;;;;;5.57;1.40;;;6.60;99.90;;;;;;4993569;28;20057;-86
2024/01/01 10:53:01;;;;;;;6.73;1.60;;;6.50;99.90;;;;;;4996094;28;20053;-85
2024/01/01 10:55:33;;;;;;;6.93;1.57;;;6.30;99.90;;;;;;4992820;28;20034;-84
2024/01/01 10:58:20;;;;;;;8.67;1.60;;;6.20;99.90;;;;;;4994569;28;20038;-82
2024/01/01 11:01:13;;;;;;;6.13;1.50;;;6.10;99.90;;;;;;4980567;28;20094;-82
2024/01/01 11:03:39;;;;;;;7.43;1.40;;;5.90;99.90;;;;;;4998958;28;20046;-82
2024/01/01 11:06:21;;;;;;;2.37;1.30;;;5.80;99.90;;;;;;4995094;28;20057;-82
2024/01/01 11:08:47;;;;;;;4.43;1.30;;;5.70;99.90;;;;;;4996168;28;20505;-83
2024/01/01 11:11:33;;;;;;;4.00;1.50;;;5.80;99.90;;;;;;4999017;28;20034;-84
2024/01/01 11:14:00;;;;;;;3.97;1.30;;;5.80;99.90;;;;;;4998982;28;20050;-83
2024/01/01 11:16:26;;;;;;;3.70;1.40;;;5.80;99.90;;;;;;5002797;28;20041;-81
2024/01/01 11:18:52;;;;;;;4.07;1.13;;;5.90;99.90;;;;;;5002179;28;20717;-82
2024/01/01 11:21:29;;;;;;;5.20;1.90;;;6.10;99.90;;;;;;5003066;28;20023;-82
2024/01/01 11:23:56;;;;;;;3.13;1.30;;;6.10;99.90;;;;;;5003817;28;20042;-81
2024/01/01 11:26:32;;;;;;;6.13;1.60;;;6.10;99.90;;;;;;5004407;28;20026;-85
2024/01/01 11:29:00;;;;;;;6.00;1.57;;;6.20;99.90;;;;;;5003874;28;20031;-82
2024/01/01 11:31:27;;;;;;;3.57;1.33;;;6.20;99.90;;;;;;5004554;28;20033;-82
2024/01/01 11:34:05;;;;;;;3.53;1.30;;;6.20;99.90;;;;;;5002641;28;20034;-83
2024/01/01 11:36:31;;;;;;;4.40;1.10;;;6.20;99.90;;;;;;5001663;28;20018;-83
2024/01/01 11:38:57;;;;;;;2.87;1.27;;;6.20;99.90;;;;;;5000454;28;20117;-82
2024/01/01 11:41:23;;;;;;;5.70;1.33;;;6.30;99.90;;;;;;5001589;28;20034;-81
2024/01/01 11:43:49;;;;;;;3.93;1.50;;;6.40;99.90;;;;;;5001568;28;20038;-82
2024/01/01 11:46:27;;;;;;;5.93;1.57;;;6.40;99.90;;;;;;5000078;28;20033;-81
2024/01/01 11:48:59;;;;;;;4.83;1.40;;;6.50;99.90;;;;;;5000334;28;20045;-83
2024/01/01 11:51:26;;;;;;;4.73;1.77;;;6.50;99.90;;;;;;5002420;28;20081;-81
2024/01/01 11:54:10;;;;;;;5.73;1.63;;;6.60;99.90;;;;;;5001990;28;20130;-80
2024/01/01 11:56:39;;;;;;;5.97;1.97;;;6.80;99.90;;;;;;5004790;28;20033;-83
2024/01/01 11:59:08;;;;;;;3.97;1.70;;;6.80;99.90;;;;;;5005138;28;20022;-81
2024/01/01 12:01:37;;;;;;;8.47;2.80;;;6.80;99.90;;;;;;5002494;28;20069;-82
2024/01/01 12:04:06;;;;;;;8.67;1.80;;;6.80;99.90;;;;;;5007183;28;20043;-80
2024/01/01 12:06:32;;;;;;;4.57;1.50;;;6.80;99.90;;;;;;5004427;28;20058;-80
2024/01/01 12:09:11;;;;;;;6.40;1.50;;;6.80;99.90;;;;;;5007990;28;20034;-83
2024/01/01 12:11:41;;;;;;;5.60;1.97;;;6.80;99.90;;;;;;5001818;28;20038;-85
2024/01/01 12:14:08;;;;;;;5.23;1.90;;;6.80;99.90;;;;;;4999920;28;20106;-84
2024/01/01 12:16:34;;;;;;;4.83;2.10;;;6.90;99.90;;;;;;4995316;28;20030;-86
2024/01/01 12:19:09;;;;;;;6.60;1.90;;;6.90;99.90;;;;;;4995749;28;20038;-79
2024/01/01 12:21:41;;;;;;;4.00;1.90;;;7.00;99.90;;;;;;4998385;28;21412;-78
2024/01/01 12:24:09;;;;;;;5.87;1.60;;;7.10;99.90;;;;;;4998663;28;20107;-78
2024/01/01 12:26:35;;;;;;;8.77;1.90;;;7.20;99.90;;;;;;4995257;28;20562;-79
2024/01/01 12:29:19;;;;;;;7.50;2.03;;;7.10;99.90;;;;;;4998099;28;20080;-80
2024/01/01 12:31:46;;;;;;;6.73;1.60;;;7.00;99.90;;;;;;4998121;28;20049;-78
2024/01/01 12:34:16;;;;;;;9.40;2.20;;;7.00;99.90;;;;;;4997935;28;20054;-73
2024/01/01 12:36:44;;;;;;;6.10;2.10;;;7.00;99.90;;;;;;4996605;28;20039;-77
2024/01/01 12:39:10;;;;;;;9.70;1.97;;;7.00;99.90;;;;;;4997268;28;20073;-79
2024/01/01 12:41:36;;;;;;;7.53;1.57;;;6.90;99.90;;;;;;4996930;28;20032;-78
2024/01/01 12:44:02;;;;;;;7.70;2.00;;;6.80;99.90;;;;;;4996189;28;21407;-81
2024/01/01 12:46:27;;;;;;;5.77;1.60;;;6.80;99.90;;;;;;4998928;28;20022;-78
2024/01/01 12:48:53;;;;;;;5.80;1.67;;;6.80;99.90;;;;;;4996409;28;20382;-78
2024/01/01 12:51:23;;;;;;;3.90;1.40;;;6.80;99.90;;;;;;4996030;28;20148;-78
2024/01/01 12:53:52;;;;;;;4.53;1.80;;;6.80;99.90;;;;;;4997374;28;20049;-79